sensor_id;sensor_type;location;lat;lon;timestamp;P1;durP1;ratioP1;P2;durP2;ratioP2
56670;SDS011;42545;50.054;8.306;2023-06-10T00:01:38;3.10;;;2.80;;
56670;SDS011;42545;50.054;8.306;2023-06-10T00:04:05;2.83;;;2.53;;
56670;SDS011;42545;50.054;8.306;2023-06-10T00:06:34;3.33;;;2.95;;
56670;SDS011;42545;50.054;8.306;2023-06-10T00:09:02;2.95;;;2.65;;
56670;SDS011;42545;50.054;8.306;2023-06-10T00:11:31;3.40;;;3.03;;
56670;SDS011;42545;50.054;8.306;2023-06-10T00:13:58;2.60;;;2.40;;
56670;SDS011;42545;50.054;8.306;2023-06-10T00:16:25;3.20;;;2.60;;
56670;SDS011;42545;50.054;8.306;2023-06-10T00:18:52;3.00;;;2.75;;
56670;SDS011;42545;50.054;8.306;2023-06-10T00:21:20;2.38;;;2.17;;
56670;SDS011;42545;50.054;8.306;2023-06-10T00:23:53;3.33;;;3.03;;
56670;SDS011;42545;50.054;8.306;2023-06-10T00:26:20;2.30;;;2.10;;
56670;SDS011;42545;50.054;8.306;2023-06-10T00:28:47;2.65;;;2.45;;
56670;SDS011;42545;50.054;8.306;2023-06-10T00:31:14;2.40;;;2.20;;
56670;SDS011;42545;50.054;8.306;2023-06-10T00:33:40;2.60;;;2.40;;
56670;SDS011;42545;50.054;8.306;2023-06-10T00:36:07;2.50;;;2.30;;
56670;SDS011;42545;50.054;8.306;2023-06-10T00:38:33;2.83;;;2.53;;
56670;SDS011;42545;50.054;8.306;2023-06-10T00:41:01;2.63;;;2.25;;
56670;SDS011;42545;50.054;8.306;2023-06-10T00:43:28;2.30;;;2.10;;
56670;SDS011;42545;50.054;8.306;2023-06-10T00:45:54;2.70;;;2.50;;
56670;SDS011;42545;50.054;8.306;2023-06-10T00:48:21;2.70;;;2.50;;
56670;SDS011;42545;50.054;8.306;2023-06-10T00:50:48;3.00;;;2.78;;
56670;SDS011;42545;50.054;8.306;2023-06-10T00:53:15;2.85;;;2.65;;
56670;SDS011;42545;50.054;8.306;2023-06-10T00:55:41;3.08;;;2.70;;
56670;SDS011;42545;50.054;8.306;2023-06-10T00:58:10;2.90;;;2.42;;
56670;SDS011;42545;50.054;8.306;2023-06-10T01:00:37;2.72;;;2.53;;
56670;SDS011;42545;50.054;8.306;2023-06-10T01:03:04;2.97;;;2.60;;
56670;SDS011;42545;50.054;8.306;2023-06-10T01:05:32;2.90;;;2.60;;
56670;SDS011;42545;50.054;8.306;2023-06-10T01:08:01;3.67;;;2.88;;
56670;SDS011;42545;50.054;8.306;2023-06-10T01:10:33;2.97;;;2.60;;
56670;SDS011;42545;50.054;8.306;2023-06-10T01:13:05;3.10;;;2.80;;
56670;SDS011;42545;50.054;8.306;2023-06-10T01:15:38;3.25;;;2.80;;
56670;SDS011;42545;50.054;8.306;2023-06-10T01:18:06;2.53;;;2.33;;
56670;SDS011;42545;50.054;8.306;2023-06-10T01:20:39;3.15;;;2.58;;
56670;SDS011;42545;50.054;8.306;2023-06-10T01:23:12;2.60;;;2.40;;
56670;SDS011;42545;50.054;8.306;2023-06-10T01:25:40;2.55;;;2.30;;
56670;SDS011;42545;50.054;8.306;2023-06-10T01:28:10;2.60;;;2.40;;
56670;SDS011;42545;50.054;8.306;2023-06-10T01:30:43;3.05;;;2.75;;
56670;SDS011;42545;50.054;8.306;2023-06-10T01:33:17;2.70;;;2.50;;
56670;SDS011;42545;50.054;8.306;2023-06-10T01:35:47;2.55;;;2.35;;
56670;SDS011;42545;50.054;8.306;2023-06-10T01:38:17;2.60;;;2.20;;
56670;SDS011;42545;50.054;8.306;2023-06-10T01:40:45;2.30;;;2.10;;
56670;SDS011;42545;50.054;8.306;2023-06-10T01:43:14;3.08;;;2.55;;
56670;SDS011;42545;50.054;8.306;2023-06-10T01:45:41;2.72;;;1.95;;
56670;SDS011;42545;50.054;8.306;2023-06-10T01:48:08;3.58;;;2.30;;
56670;SDS011;42545;50.054;8.306;2023-06-10T01:50:34;2.42;;;2.20;;
56670;SDS011;42545;50.054;8.306;2023-06-10T01:53:01;2.75;;;2.10;;
56670;SDS011;42545;50.054;8.306;2023-06-10T01:55:29;2.40;;;2.00;;
56670;SDS011;42545;50.054;8.306;2023-06-10T01:57:55;2.40;;;2.20;;
56670;SDS011;42545;50.054;8.306;2023-06-10T02:00:22;2.72;;;2.35;;
56670;SDS011;42545;50.054;8.306;2023-06-10T02:02:49;2.63;;;2.30;;
56670;SDS011;42545;50.054;8.306;2023-06-10T02:05:16;3.35;;;2.72;;
56670;SDS011;42545;50.054;8.306;2023-06-10T02:07:42;2.70;;;2.15;;
56670;SDS011;42545;50.054;8.306;2023-06-10T02:10:09;2.65;;;2.22;;
56670;SDS011;42545;50.054;8.306;2023-06-10T02:12:37;2.28;;;2.00;;
56670;SDS011;42545;50.054;8.306;2023-06-10T02:15:04;2.30;;;2.10;;
56670;SDS011;42545;50.054;8.306;2023-06-10T02:17:31;2.20;;;2.00;;
56670;SDS011;42545;50.054;8.306;2023-06-10T02:19:58;2.20;;;2.00;;
56670;SDS011;42545;50.054;8.306;2023-06-10T02:22:29;2.30;;;2.10;;
56670;SDS011;42545;50.054;8.306;2023-06-10T02:24:56;1.90;;;1.70;;
56670;SDS011;42545;50.054;8.306;2023-06-10T02:27:22;1.80;;;1.70;;
56670;SDS011;42545;50.054;8.306;2023-06-10T02:29:51;1.60;;;1.50;;
56670;SDS011;42545;50.054;8.306;2023-06-10T02:32:17;1.58;;;1.45;;
56670;SDS011;42545;50.054;8.306;2023-06-10T02:34:44;1.50;;;1.40;;
56670;SDS011;42545;50.054;8.306;2023-06-10T02:37:10;1.90;;;1.45;;
56670;SDS011;42545;50.054;8.306;2023-06-10T02:39:37;2.08;;;1.80;;
56670;SDS011;42545;50.054;8.306;2023-06-10T02:42:04;2.08;;;1.88;;
56670;SDS011;42545;50.054;8.306;2023-06-10T02:44:32;1.45;;;1.35;;
56670;SDS011;42545;50.054;8.306;2023-06-10T02:47:00;1.67;;;1.58;;
56670;SDS011;42545;50.054;8.306;2023-06-10T02:49:27;1.40;;;1.30;;
56670;SDS011;42545;50.054;8.306;2023-06-10T02:51:54;1.55;;;1.45;;
56670;SDS011;42545;50.054;8.306;2023-06-10T02:54:21;1.70;;;1.60;;
56670;SDS011;42545;50.054;8.306;2023-06-10T02:56:49;1.60;;;1.33;;
56670;SDS011;42545;50.054;8.306;2023-06-10T02:59:15;1.40;;;1.30;;
56670;SDS011;42545;50.054;8.306;2023-06-10T03:01:42;1.48;;;1.38;;
56670;SDS011;42545;50.054;8.306;2023-06-10T03:04:10;1.58;;;1.48;;
56670;SDS011;42545;50.054;8.306;2023-06-10T03:06:38;1.40;;;1.30;;
56670;SDS011;42545;50.054;8.306;2023-06-10T03:09:06;1.40;;;1.30;;
56670;SDS011;42545;50.054;8.306;2023-06-10T03:11:33;1.38;;;1.27;;
56670;SDS011;42545;50.054;8.306;2023-06-10T03:14:00;1.65;;;1.48;;
56670;SDS011;42545;50.054;8.306;2023-06-10T03:16:27;1.30;;;1.20;;
56670;SDS011;42545;50.054;8.306;2023-06-10T03:18:55;0.98;;;0.98;;
56670;SDS011;42545;50.054;8.306;2023-06-10T03:21:23;1.30;;;1.10;;
56670;SDS011;42545;50.054;8.306;2023-06-10T03:23:50;1.13;;;1.02;;
56670;SDS011;42545;50.054;8.306;2023-06-10T03:26:17;1.40;;;1.20;;
56670;SDS011;42545;50.054;8.306;2023-06-10T03:28:47;1.20;;;1.10;;
56670;SDS011;42545;50.054;8.306;2023-06-10T03:31:13;0.90;;;0.90;;
56670;SDS011;42545;50.054;8.306;2023-06-10T03:33:41;0.90;;;0.90;;
56670;SDS011;42545;50.054;8.306;2023-06-10T03:36:08;0.90;;;0.90;;
56670;SDS011;42545;50.054;8.306;2023-06-10T03:38:36;0.90;;;0.90;;
56670;SDS011;42545;50.054;8.306;2023-06-10T03:41:04;0.80;;;0.80;;
56670;SDS011;42545;50.054;8.306;2023-06-10T03:43:31;0.80;;;0.80;;
56670;SDS011;42545;50.054;8.306;2023-06-10T03:45:59;0.90;;;0.90;;
56670;SDS011;42545;50.054;8.306;2023-06-10T03:48:26;0.70;;;0.70;;
56670;SDS011;42545;50.054;8.306;2023-06-10T03:50:52;0.73;;;0.73;;
56670;SDS011;42545;50.054;8.306;2023-06-10T03:53:19;0.85;;;0.70;;
56670;SDS011;42545;50.054;8.306;2023-06-10T03:55:47;1.13;;;1.02;;
56670;SDS011;42545;50.054;8.306;2023-06-10T03:58:14;0.70;;;0.70;;
56670;SDS011;42545;50.054;8.306;2023-06-10T04:00:43;0.60;;;0.60;;
56670;SDS011;42545;50.054;8.306;2023-06-10T04:03:10;0.60;;;0.60;;
56670;SDS011;42545;50.054;8.306;2023-06-10T04:05:39;0.88;;;0.75;;
56670;SDS011;42545;50.054;8.306;2023-06-10T04:08:06;0.70;;;0.70;;
56670;SDS011;42545;50.054;8.306;2023-06-10T04:10:33;0.60;;;0.60;;
56670;SDS011;42545;50.054;8.306;2023-06-10T04:13:02;0.80;;;0.80;;
56670;SDS011;42545;50.054;8.306;2023-06-10T04:15:30;0.60;;;0.60;;
56670;SDS011;42545;50.054;8.306;2023-06-10T04:17:58;0.70;;;0.70;;
56670;SDS011;42545;50.054;8.306;2023-06-10T04:20:26;0.50;;;0.50;;
56670;SDS011;42545;50.054;8.306;2023-06-10T04:22:55;0.70;;;0.70;;
56670;SDS011;42545;50.054;8.306;2023-06-10T04:25:22;0.50;;;0.50;;
56670;SDS011;42545;50.054;8.306;2023-06-10T04:27:51;0.57;;;0.57;;
56670;SDS011;42545;50.054;8.306;2023-06-10T04:30:22;0.55;;;0.55;;
56670;SDS011;42545;50.054;8.306;2023-06-10T04:32:49;0.68;;;0.65;;
56670;SDS011;42545;50.054;8.306;2023-06-10T04:35:17;0.60;;;0.60;;
56670;SDS011;42545;50.054;8.306;2023-06-10T04:37:43;0.65;;;0.65;;
56670;SDS011;42545;50.054;8.306;2023-06-10T04:40:10;0.90;;;0.90;;
56670;SDS011;42545;50.054;8.306;2023-06-10T04:42:37;0.80;;;0.80;;
56670;SDS011;42545;50.054;8.306;2023-06-10T04:45:04;1.10;;;1.00;;
56670;SDS011;42545;50.054;8.306;2023-06-10T04:47:34;1.40;;;1.30;;
56670;SDS011;42545;50.054;8.306;2023-06-10T04:50:01;1.23;;;1.13;;
56670;SDS011;42545;50.054;8.306;2023-06-10T04:52:28;1.10;;;1.00;;
56670;SDS011;42545;50.054;8.306;2023-06-10T04:54:55;1.20;;;1.10;;
56670;SDS011;42545;50.054;8.306;2023-06-10T04:57:23;1.33;;;1.15;;
56670;SDS011;42545;50.054;8.306;2023-06-10T04:59:49;1.30;;;1.08;;
56670;SDS011;42545;50.054;8.306;2023-06-10T05:02:16;1.08;;;1.00;;
56670;SDS011;42545;50.054;8.306;2023-06-10T05:04:45;1.10;;;0.98;;
56670;SDS011;42545;50.054;8.306;2023-06-10T05:07:11;1.20;;;1.10;;
56670;SDS011;42545;50.054;8.306;2023-06-10T05:09:38;1.20;;;1.10;;
56670;SDS011;42545;50.054;8.306;2023-06-10T05:12:05;1.27;;;1.17;;
56670;SDS011;42545;50.054;8.306;2023-06-10T05:14:33;1.10;;;1.00;;
56670;SDS011;42545;50.054;8.306;2023-06-10T05:17:00;1.20;;;1.10;;
56670;SDS011;42545;50.054;8.306;2023-06-10T05:19:27;1.00;;;1.00;;
56670;SDS011;42545;50.054;8.306;2023-06-10T05:21:55;1.05;;;1.00;;
56670;SDS011;42545;50.054;8.306;2023-06-10T05:24:22;1.08;;;0.98;;
56670;SDS011;42545;50.054;8.306;2023-06-10T05:26:49;2.28;;;1.38;;
56670;SDS011;42545;50.054;8.306;2023-06-10T05:29:16;1.10;;;1.00;;
56670;SDS011;42545;50.054;8.306;2023-06-10T05:31:43;1.30;;;1.20;;
56670;SDS011;42545;50.054;8.306;2023-06-10T05:34:10;1.08;;;0.93;;
56670;SDS011;42545;50.054;8.306;2023-06-10T05:36:37;1.20;;;1.08;;
56670;SDS011;42545;50.054;8.306;2023-06-10T05:39:05;1.05;;;0.95;;
56670;SDS011;42545;50.054;8.306;2023-06-10T05:41:31;1.20;;;1.10;;
56670;SDS011;42545;50.054;8.306;2023-06-10T05:43:58;1.23;;;1.13;;
56670;SDS011;42545;50.054;8.306;2023-06-10T05:46:25;0.95;;;0.85;;
56670;SDS011;42545;50.054;8.306;2023-06-10T05:48:52;1.33;;;1.13;;
56670;SDS011;42545;50.054;8.306;2023-06-10T05:51:19;2.03;;;1.40;;
56670;SDS011;42545;50.054;8.306;2023-06-10T05:53:45;2.00;;;1.50;;
56670;SDS011;42545;50.054;8.306;2023-06-10T05:56:14;1.42;;;1.33;;
56670;SDS011;42545;50.054;8.306;2023-06-10T05:58:41;1.73;;;1.40;;
56670;SDS011;42545;50.054;8.306;2023-06-10T06:01:09;1.98;;;1.70;;
56670;SDS011;42545;50.054;8.306;2023-06-10T06:03:36;2.22;;;1.98;;
56670;SDS011;42545;50.054;8.306;2023-06-10T06:06:03;1.98;;;1.77;;
56670;SDS011;42545;50.054;8.306;2023-06-10T06:08:33;1.98;;;1.77;;
56670;SDS011;42545;50.054;8.306;2023-06-10T06:11:01;2.23;;;2.03;;
56670;SDS011;42545;50.054;8.306;2023-06-10T06:13:30;2.40;;;2.20;;
56670;SDS011;42545;50.054;8.306;2023-06-10T06:15:57;2.13;;;1.93;;
56670;SDS011;42545;50.054;8.306;2023-06-10T06:18:24;2.25;;;2.00;;
56670;SDS011;42545;50.054;8.306;2023-06-10T06:20:51;3.03;;;2.70;;
56670;SDS011;42545;50.054;8.306;2023-06-10T06:23:18;3.88;;;3.00;;
56670;SDS011;42545;50.054;8.306;2023-06-10T06:25:44;2.88;;;2.63;;
56670;SDS011;42545;50.054;8.306;2023-06-10T06:28:12;4.70;;;3.00;;
56670;SDS011;42545;50.054;8.306;2023-06-10T06:30:40;3.42;;;2.80;;
56670;SDS011;42545;50.054;8.306;2023-06-10T06:33:06;3.58;;;3.28;;
56670;SDS011;42545;50.054;8.306;2023-06-10T06:35:33;3.33;;;2.72;;
56670;SDS011;42545;50.054;8.306;2023-06-10T06:38:00;3.45;;;3.00;;
56670;SDS011;42545;50.054;8.306;2023-06-10T06:40:26;2.92;;;2.63;;
56670;SDS011;42545;50.054;8.306;2023-06-10T06:42:53;3.10;;;2.80;;
56670;SDS011;42545;50.054;8.306;2023-06-10T06:45:21;4.93;;;3.63;;
56670;SDS011;42545;50.054;8.306;2023-06-10T06:47:50;3.63;;;3.20;;
56670;SDS011;42545;50.054;8.306;2023-06-10T06:50:16;3.92;;;3.53;;
56670;SDS011;42545;50.054;8.306;2023-06-10T06:52:43;3.33;;;2.78;;
56670;SDS011;42545;50.054;8.306;2023-06-10T06:55:10;2.83;;;2.60;;
56670;SDS011;42545;50.054;8.306;2023-06-10T06:57:37;3.17;;;2.80;;
56670;SDS011;42545;50.054;8.306;2023-06-10T07:00:04;3.47;;;2.83;;
56670;SDS011;42545;50.054;8.306;2023-06-10T07:02:34;3.55;;;2.90;;
56670;SDS011;42545;50.054;8.306;2023-06-10T07:05:03;3.30;;;3.00;;
56670;SDS011;42545;50.054;8.306;2023-06-10T07:07:30;3.85;;;3.45;;
56670;SDS011;42545;50.054;8.306;2023-06-10T07:09:57;4.63;;;3.95;;
56670;SDS011;42545;50.054;8.306;2023-06-10T07:12:24;3.50;;;3.20;;
56670;SDS011;42545;50.054;8.306;2023-06-10T07:14:51;5.43;;;4.05;;
56670;SDS011;42545;50.054;8.306;2023-06-10T07:17:18;4.90;;;4.40;;
56670;SDS011;42545;50.054;8.306;2023-06-10T07:19:45;4.38;;;3.58;;
56670;SDS011;42545;50.054;8.306;2023-06-10T07:22:13;5.93;;;3.90;;
56670;SDS011;42545;50.054;8.306;2023-06-10T07:24:40;4.47;;;3.67;;
56670;SDS011;42545;50.054;8.306;2023-06-10T07:27:06;4.07;;;3.67;;
56670;SDS011;42545;50.054;8.306;2023-06-10T07:29:34;5.20;;;4.10;;
56670;SDS011;42545;50.054;8.306;2023-06-10T07:32:02;4.18;;;3.80;;
56670;SDS011;42545;50.054;8.306;2023-06-10T07:34:29;4.80;;;4.05;;
56670;SDS011;42545;50.054;8.306;2023-06-10T07:36:56;4.30;;;3.90;;
56670;SDS011;42545;50.054;8.306;2023-06-10T07:39:24;3.50;;;3.20;;
56670;SDS011;42545;50.054;8.306;2023-06-10T07:41:51;6.18;;;4.13;;
56670;SDS011;42545;50.054;8.306;2023-06-10T07:44:21;3.95;;;3.50;;
56670;SDS011;42545;50.054;8.306;2023-06-10T07:46:48;4.80;;;3.92;;
56670;SDS011;42545;50.054;8.306;2023-06-10T07:49:15;3.63;;;3.28;;
56670;SDS011;42545;50.054;8.306;2023-06-10T07:51:42;4.30;;;3.90;;
56670;SDS011;42545;50.054;8.306;2023-06-10T07:54:09;5.57;;;4.13;;
56670;SDS011;42545;50.054;8.306;2023-06-10T07:56:38;4.85;;;4.28;;
56670;SDS011;42545;50.054;8.306;2023-06-10T07:59:05;4.60;;;4.20;;
56670;SDS011;42545;50.054;8.306;2023-06-10T08:01:32;6.22;;;5.22;;
56670;SDS011;42545;50.054;8.306;2023-06-10T08:04:00;5.05;;;4.53;;
56670;SDS011;42545;50.054;8.306;2023-06-10T08:06:27;5.10;;;4.47;;
56670;SDS011;42545;50.054;8.306;2023-06-10T08:08:54;5.05;;;4.55;;
56670;SDS011;42545;50.054;8.306;2023-06-10T08:11:20;4.22;;;3.83;;
56670;SDS011;42545;50.054;8.306;2023-06-10T08:13:48;4.10;;;3.65;;
56670;SDS011;42545;50.054;8.306;2023-06-10T08:16:16;5.63;;;4.65;;
56670;SDS011;42545;50.054;8.306;2023-06-10T08:18:42;5.55;;;4.60;;
56670;SDS011;42545;50.054;8.306;2023-06-10T08:21:09;5.43;;;4.57;;
56670;SDS011;42545;50.054;8.306;2023-06-10T08:23:36;5.47;;;4.75;;
56670;SDS011;42545;50.054;8.306;2023-06-10T08:26:03;5.93;;;4.97;;
56670;SDS011;42545;50.054;8.306;2023-06-10T08:28:29;4.68;;;4.18;;
56670;SDS011;42545;50.054;8.306;2023-06-10T08:30:59;5.07;;;4.57;;
56670;SDS011;42545;50.054;8.306;2023-06-10T08:33:26;5.15;;;4.65;;
56670;SDS011;42545;50.054;8.306;2023-06-10T08:35:52;6.53;;;5.38;;
56670;SDS011;42545;50.054;8.306;2023-06-10T08:38:19;6.55;;;4.97;;
56670;SDS011;42545;50.054;8.306;2023-06-10T08:40:46;5.32;;;4.32;;
56670;SDS011;42545;50.054;8.306;2023-06-10T08:43:15;6.32;;;5.20;;
56670;SDS011;42545;50.054;8.306;2023-06-10T08:45:48;5.53;;;4.97;;
56670;SDS011;42545;50.054;8.306;2023-06-10T08:48:16;4.95;;;4.50;;
56670;SDS011;42545;50.054;8.306;2023-06-10T08:50:45;6.18;;;5.30;;
56670;SDS011;42545;50.054;8.306;2023-06-10T08:53:14;4.82;;;4.22;;
56670;SDS011;42545;50.054;8.306;2023-06-10T08:55:46;5.22;;;4.72;;
56670;SDS011;42545;50.054;8.306;2023-06-10T08:58:17;6.68;;;4.70;;
56670;SDS011;42545;50.054;8.306;2023-06-10T09:00:44;5.20;;;4.32;;
56670;SDS011;42545;50.054;8.306;2023-06-10T09:03:11;5.65;;;4.47;;
56670;SDS011;42545;50.054;8.306;2023-06-10T09:05:39;7.28;;;5.28;;
56670;SDS011;42545;50.054;8.306;2023-06-10T09:08:07;6.32;;;5.15;;
56670;SDS011;42545;50.054;8.306;2023-06-10T09:10:34;4.85;;;4.32;;
56670;SDS011;42545;50.054;8.306;2023-06-10T09:13:01;5.45;;;4.72;;
56670;SDS011;42545;50.054;8.306;2023-06-10T09:15:27;5.00;;;4.50;;
56670;SDS011;42545;50.054;8.306;2023-06-10T09:17:54;5.07;;;4.60;;
56670;SDS011;42545;50.054;8.306;2023-06-10T09:20:21;5.35;;;4.55;;
56670;SDS011;42545;50.054;8.306;2023-06-10T09:22:49;5.57;;;4.60;;
56670;SDS011;42545;50.054;8.306;2023-06-10T09:25:16;4.80;;;4.40;;
56670;SDS011;42545;50.054;8.306;2023-06-10T09:27:46;4.75;;;4.32;;
56670;SDS011;42545;50.054;8.306;2023-06-10T09:30:25;5.95;;;4.40;;
56670;SDS011;42545;50.054;8.306;2023-06-10T09:32:53;5.50;;;4.47;;
56670;SDS011;42545;50.054;8.306;2023-06-10T09:35:22;6.30;;;4.45;;
56670;SDS011;42545;50.054;8.306;2023-06-10T09:37:51;5.25;;;4.30;;
56670;SDS011;42545;50.054;8.306;2023-06-10T09:40:18;4.72;;;3.97;;
56670;SDS011;42545;50.054;8.306;2023-06-10T09:42:44;4.80;;;4.30;;
56670;SDS011;42545;50.054;8.306;2023-06-10T09:47:41;4.63;;;4.22;;
56670;SDS011;42545;50.054;8.306;2023-06-10T09:50:08;4.60;;;4.20;;
56670;SDS011;42545;50.054;8.306;2023-06-10T09:52:36;6.28;;;4.80;;
56670;SDS011;42545;50.054;8.306;2023-06-10T09:55:07;4.80;;;4.30;;
56670;SDS011;42545;50.054;8.306;2023-06-10T09:57:36;4.45;;;4.05;;
56670;SDS011;42545;50.054;8.306;2023-06-10T10:00:04;4.38;;;3.97;;
56670;SDS011;42545;50.054;8.306;2023-06-10T10:02:32;4.85;;;4.35;;
56670;SDS011;42545;50.054;8.306;2023-06-10T10:05:09;6.32;;;4.32;;
56670;SDS011;42545;50.054;8.306;2023-06-10T10:07:35;5.97;;;5.38;;
56670;SDS011;42545;50.054;8.306;2023-06-10T10:10:02;7.00;;;4.90;;
56670;SDS011;42545;50.054;8.306;2023-06-10T10:12:30;4.93;;;4.43;;
56670;SDS011;42545;50.054;8.306;2023-06-10T10:14:57;5.30;;;4.75;;
56670;SDS011;42545;50.054;8.306;2023-06-10T10:17:23;6.07;;;4.82;;
56670;SDS011;42545;50.054;8.306;2023-06-10T10:19:55;4.80;;;4.30;;
56670;SDS011;42545;50.054;8.306;2023-06-10T10:22:29;5.82;;;4.45;;
56670;SDS011;42545;50.054;8.306;2023-06-10T10:25:02;6.90;;;5.13;;
56670;SDS011;42545;50.054;8.306;2023-06-10T10:27:35;4.45;;;4.05;;
56670;SDS011;42545;50.054;8.306;2023-06-10T10:30:05;5.00;;;4.50;;
56670;SDS011;42545;50.054;8.306;2023-06-10T10:32:37;5.20;;;4.70;;
56670;SDS011;42545;50.054;8.306;2023-06-10T10:35:08;5.35;;;4.20;;
56670;SDS011;42545;50.054;8.306;2023-06-10T10:37:38;4.22;;;3.83;;
56670;SDS011;42545;50.054;8.306;2023-06-10T10:40:06;5.55;;;4.50;;
56670;SDS011;42545;50.054;8.306;2023-06-10T10:42:36;6.35;;;4.50;;
56670;SDS011;42545;50.054;8.306;2023-06-10T10:45:05;4.97;;;4.43;;
56670;SDS011;42545;50.054;8.306;2023-06-10T10:47:33;4.80;;;4.30;;
56670;SDS011;42545;50.054;8.306;2023-06-10T10:52:46;5.47;;;4.38;;
56670;SDS011;42545;50.054;8.306;2023-06-10T10:55:18;4.35;;;3.95;;
56670;SDS011;42545;50.054;8.306;2023-06-10T10:57:54;4.35;;;3.95;;
56670;SDS011;42545;50.054;8.306;2023-06-10T11:00:26;4.32;;;3.90;;
56670;SDS011;42545;50.054;8.306;2023-06-10T11:02:56;5.07;;;4.57;;
56670;SDS011;42545;50.054;8.306;2023-06-10T11:05:31;6.50;;;5.10;;
56670;SDS011;42545;50.054;8.306;2023-06-10T11:07:58;5.00;;;4.50;;
56670;SDS011;42545;50.054;8.306;2023-06-10T11:10:30;4.65;;;4.25;;
56670;SDS011;42545;50.054;8.306;2023-06-10T11:12:59;4.93;;;4.43;;
56670;SDS011;42545;50.054;8.306;2023-06-10T11:15:28;4.10;;;3.72;;
56670;SDS011;42545;50.054;8.306;2023-06-10T11:18:12;6.82;;;4.22;;
56670;SDS011;42545;50.054;8.306;2023-06-10T11:20:44;4.40;;;4.00;;
56670;SDS011;42545;50.054;8.306;2023-06-10T11:23:24;5.07;;;4.57;;
56670;SDS011;42545;50.054;8.306;2023-06-10T11:25:51;6.78;;;4.75;;
56670;SDS011;42545;50.054;8.306;2023-06-10T11:28:37;6.30;;;4.80;;
56670;SDS011;42545;50.054;8.306;2023-06-10T11:31:03;7.13;;;4.20;;
56670;SDS011;42545;50.054;8.306;2023-06-10T11:33:30;4.18;;;3.83;;
56670;SDS011;42545;50.054;8.306;2023-06-10T11:35:58;4.13;;;3.72;;
56670;SDS011;42545;50.054;8.306;2023-06-10T11:38:25;5.55;;;4.35;;
56670;SDS011;42545;50.054;8.306;2023-06-10T11:40:54;4.78;;;4.05;;
56670;SDS011;42545;50.054;8.306;2023-06-10T11:43:22;4.28;;;3.88;;
56670;SDS011;42545;50.054;8.306;2023-06-10T11:45:55;4.38;;;3.97;;
56670;SDS011;42545;50.054;8.306;2023-06-10T11:48:22;5.50;;;4.03;;
56670;SDS011;42545;50.054;8.306;2023-06-10T11:50:48;5.38;;;4.53;;
56670;SDS011;42545;50.054;8.306;2023-06-10T11:53:15;6.40;;;4.43;;
56670;SDS011;42545;50.054;8.306;2023-06-10T11:55:43;5.55;;;4.40;;
56670;SDS011;42545;50.054;8.306;2023-06-10T11:58:13;5.38;;;4.10;;
56670;SDS011;42545;50.054;8.306;2023-06-10T12:00:43;4.10;;;3.70;;
56670;SDS011;42545;50.054;8.306;2023-06-10T12:03:12;4.88;;;4.25;;
56670;SDS011;42545;50.054;8.306;2023-06-10T12:05:39;3.70;;;3.40;;
56670;SDS011;42545;50.054;8.306;2023-06-10T12:08:07;3.63;;;3.33;;
56670;SDS011;42545;50.054;8.306;2023-06-10T12:10:38;3.60;;;3.28;;
56670;SDS011;42545;50.054;8.306;2023-06-10T12:13:06;3.70;;;3.40;;
56670;SDS011;42545;50.054;8.306;2023-06-10T12:15:34;3.97;;;3.58;;
56670;SDS011;42545;50.054;8.306;2023-06-10T12:18:00;6.32;;;4.28;;
56670;SDS011;42545;50.054;8.306;2023-06-10T12:20:31;4.97;;;3.60;;
56670;SDS011;42545;50.054;8.306;2023-06-10T12:22:59;4.03;;;3.55;;
56670;SDS011;42545;50.054;8.306;2023-06-10T12:25:27;3.97;;;3.58;;
56670;SDS011;42545;50.054;8.306;2023-06-10T12:27:55;4.20;;;3.83;;
56670;SDS011;42545;50.054;8.306;2023-06-10T12:30:23;4.90;;;3.88;;
56670;SDS011;42545;50.054;8.306;2023-06-10T12:32:53;3.80;;;3.33;;
56670;SDS011;42545;50.054;8.306;2023-06-10T12:35:20;3.95;;;3.55;;
56670;SDS011;42545;50.054;8.306;2023-06-10T12:37:57;4.63;;;3.38;;
56670;SDS011;42545;50.054;8.306;2023-06-10T12:40:26;3.60;;;3.30;;
56670;SDS011;42545;50.054;8.306;2023-06-10T12:42:54;3.67;;;3.38;;
56670;SDS011;42545;50.054;8.306;2023-06-10T12:45:26;3.63;;;3.28;;
56670;SDS011;42545;50.054;8.306;2023-06-10T12:48:03;4.93;;;3.70;;
56670;SDS011;42545;50.054;8.306;2023-06-10T12:50:34;4.30;;;3.83;;
56670;SDS011;42545;50.054;8.306;2023-06-10T12:53:03;3.63;;;3.33;;
56670;SDS011;42545;50.054;8.306;2023-06-10T12:55:30;4.18;;;3.78;;
56670;SDS011;42545;50.054;8.306;2023-06-10T12:57:57;3.80;;;3.33;;
56670;SDS011;42545;50.054;8.306;2023-06-10T13:00:24;4.88;;;4.00;;
56670;SDS011;42545;50.054;8.306;2023-06-10T13:02:54;3.92;;;3.60;;
56670;SDS011;42545;50.054;8.306;2023-06-10T13:05:21;5.25;;;4.18;;
56670;SDS011;42545;50.054;8.306;2023-06-10T13:07:48;3.70;;;3.40;;
56670;SDS011;42545;50.054;8.306;2023-06-10T13:10:16;4.05;;;3.65;;
56670;SDS011;42545;50.054;8.306;2023-06-10T13:12:44;4.22;;;3.60;;
56670;SDS011;42545;50.054;8.306;2023-06-10T13:15:11;3.65;;;3.35;;
56670;SDS011;42545;50.054;8.306;2023-06-10T13:17:40;4.70;;;3.95;;
56670;SDS011;42545;50.054;8.306;2023-06-10T13:20:07;4.38;;;3.88;;
56670;SDS011;42545;50.054;8.306;2023-06-10T13:22:35;4.20;;;3.80;;
56670;SDS011;42545;50.054;8.306;2023-06-10T13:25:02;4.20;;;3.65;;
56670;SDS011;42545;50.054;8.306;2023-06-10T13:27:31;3.45;;;3.10;;
56670;SDS011;42545;50.054;8.306;2023-06-10T13:30:00;4.05;;;3.50;;
56670;SDS011;42545;50.054;8.306;2023-06-10T13:32:27;5.53;;;4.25;;
56670;SDS011;42545;50.054;8.306;2023-06-10T13:34:54;4.80;;;4.15;;
56670;SDS011;42545;50.054;8.306;2023-06-10T13:37:21;3.97;;;3.67;;
56670;SDS011;42545;50.054;8.306;2023-06-10T13:39:47;3.70;;;3.40;;
56670;SDS011;42545;50.054;8.306;2023-06-10T13:42:15;3.90;;;3.42;;
56670;SDS011;42545;50.054;8.306;2023-06-10T13:44:43;3.78;;;3.38;;
56670;SDS011;42545;50.054;8.306;2023-06-10T13:47:10;3.40;;;3.10;;
56670;SDS011;42545;50.054;8.306;2023-06-10T13:49:37;3.20;;;2.92;;
56670;SDS011;42545;50.054;8.306;2023-06-10T13:52:04;4.43;;;4.03;;
56670;SDS011;42545;50.054;8.306;2023-06-10T13:54:31;3.20;;;2.90;;
56670;SDS011;42545;50.054;8.306;2023-06-10T13:56:58;3.17;;;2.88;;
56670;SDS011;42545;50.054;8.306;2023-06-10T13:59:25;3.35;;;2.95;;
56670;SDS011;42545;50.054;8.306;2023-06-10T14:01:53;3.90;;;2.97;;
56670;SDS011;42545;50.054;8.306;2023-06-10T14:04:20;4.73;;;3.70;;
56670;SDS011;42545;50.054;8.306;2023-06-10T14:06:47;4.20;;;3.58;;
56670;SDS011;42545;50.054;8.306;2023-06-10T14:09:14;3.17;;;2.88;;
56670;SDS011;42545;50.054;8.306;2023-06-10T14:11:41;3.30;;;3.00;;
56670;SDS011;42545;50.054;8.306;2023-06-10T14:14:07;7.88;;;4.95;;
56670;SDS011;42545;50.054;8.306;2023-06-10T14:16:35;4.18;;;3.78;;
56670;SDS011;42545;50.054;8.306;2023-06-10T14:19:03;3.80;;;3.50;;
56670;SDS011;42545;50.054;8.306;2023-06-10T14:21:29;4.00;;;3.60;;
56670;SDS011;42545;50.054;8.306;2023-06-10T14:23:56;4.15;;;3.75;;
56670;SDS011;42545;50.054;8.306;2023-06-10T14:26:22;7.20;;;3.45;;
56670;SDS011;42545;50.054;8.306;2023-06-10T14:28:51;3.67;;;3.37;;
56670;SDS011;42545;50.054;8.306;2023-06-10T14:31:18;4.00;;;3.60;;
56670;SDS011;42545;50.054;8.306;2023-06-10T14:33:44;3.85;;;3.47;;
56670;SDS011;42545;50.054;8.306;2023-06-10T14:36:12;4.07;;;3.67;;
56670;SDS011;42545;50.054;8.306;2023-06-10T14:38:39;5.93;;;4.00;;
56670;SDS011;42545;50.054;8.306;2023-06-10T14:41:06;4.10;;;3.70;;
56670;SDS011;42545;50.054;8.306;2023-06-10T14:43:33;4.13;;;3.60;;
56670;SDS011;42545;50.054;8.306;2023-06-10T14:46:00;4.13;;;3.70;;
56670;SDS011;42545;50.054;8.306;2023-06-10T14:48:27;5.38;;;4.00;;
56670;SDS011;42545;50.054;8.306;2023-06-10T14:50:53;3.75;;;3.40;;
56670;SDS011;42545;50.054;8.306;2023-06-10T14:53:23;4.22;;;3.40;;
56670;SDS011;42545;50.054;8.306;2023-06-10T14:55:49;4.00;;;3.53;;
56670;SDS011;42545;50.054;8.306;2023-06-10T14:58:16;4.28;;;3.60;;